Hamlet, NC (28345)

3:40 PM EDT on May 25, 2015 (GMT -0400)
RAWS | | Change Station
CLOSE
Current Station
Personal Weather Station
Location: Rockingham, NC
Elevation: 399 ft
Nearby Weather Stations

Elev 399 ft 34.96 °N, 79.69 °W | Updated 55 minutes ago

Mostly Cloudy
Mostly Cloudy
86 °F
Feels Like 85 °F
N
7
Wind Variable Wind from SSW
Gusts 15.0 mph

Today
High -- | Low -- °F
--% Chance of Precip.
Yesterday
High -- | Low -- °F
Precip. -- in
6:09 AM 8:22 PM
Waxing Crescent, 51% visible
Pressure 30.28 in
Visibility 10.0 miles
Clouds Mostly Cloudy 5000 ft
Heat Index 85 °F
Dew Point 56 °F
Humidity 36%
Rainfall in
Snow Depth Not available.
UV 5 out of 12
Pollen 7.60 out of 12
Air Quality Not available.
Flu Activity No Activity
METAR KRCZ 251915Z AUTO 12003KT 10SM BKN050 27/15 A3028 RMK AO2 T02710145

More Conditions Fewer Conditions

Pressure 30.28 in
Visibility 10.0 miles
Clouds Mostly Cloudy 5000 ft
Heat Index 85 °F
Dew Point 56 °F
Humidity 36%
Rainfall in
Snow Depth Not available.
UV 5 out of 12
Pollen 7.60 out of 12
Air Quality Not available.
Flu Activity No Activity
METAR KRCZ 251915Z AUTO 12003KT 10SM BKN050 27/15 A3028 RMK AO2 T02710145

More Conditions Fewer Conditions

10-Day Weather Forecast

Almanac

Astronomy

May. 25, 2015 Rise Set
Actual Time
Civil Twilight
Nautical Twilight
Astronomical Twilight
Moon
Length of Visible Light
Length of Day
Tomorrow will be .
, % of the Moon is Illuminated

Today's Extremes

State Highs State Lows

Community

WunderPhotos

Upload Photos

1,824,102 photos uploaded!

WunderBlogs® & News

Nearby

Air Quality

  Air Quality AQ Index Pollutant
Not available.

Snow Depth

Station Depth Elevation

Earthquake Activity

City Distance Mag. Time & Date
Minimum magnitude displayed is 2.5.

Coastal Water Temperatures

Place Temperature

Stations

Nearby Weather Stations

Station Location Temp. Windchill Dew Point Humidity Wind Precip. Elev Updated Type